Notice: Undefined index: name in /home/yearbywe/public_html/pwsTEST/metar_load_funct.php on line 53

Notice: Undefined index: humidity_percent in /home/yearbywe/public_html/pwsTEST/metar_load_funct.php on line 95
Metar Aviation Weather Data     EGNV
 X  CloseMetar Aviation Weather Data     EGNV

Temperature

5°C Temp

3°C Dewpoint

% Humidity



Wind

11 KM/H

 7 MPH

 6 KTS



350°
Due North
Current Conditions

Rain Rain
Pressure 973.92 (hPa) - 28.76 (in)
Visibility 3.7 (mi) - 6 (km)
Airport
Airport-code EGNV

Location 0 (mi)

Metar:
EGNV 201850Z 35006KT 6000 RA SCT004 BKN008 05/03 Q0974


Notice: Undefined offset: 1 in /home/yearbywe/public_html/pwsTEST/metar_popup.php on line 198

Notice: Undefined offset: 1 in /home/yearbywe/public_html/pwsTEST/metar_popup.php on line 200
Time: 13-07-2025 01:00